Blue Horizons Flying Club, Inc.

Radar AviationWeather DUATS TFRs Wunderground Accuweather Weather.com

alt : Radar

TAFs

KJXN 202102Z 2021/2118 26013G26KT P6SM -SN OVC040
     TEMPO 2021/2101 2SM -SN OVC025
   FM210600 29007KT P6SM -SN BKN040
   FM211500 21006KT P6SM BKN040
KDTW 202012Z 2020/2124 23016G26KT P6SM SCT045 BKN060
     TEMPO 2020/2023 4SM -SHSN BKN035 BKN045
   FM202300 26013G21KT 4SM -SHSN BKN035
     TEMPO 2101/2105 2SM -SHSN BKN018 OVC030
   FM210700 27008KT P6SM SCT040
   FM211800 23008KT P6SM SCT030
KTOL 202000Z 2020/2118 26016G26KT P6SM BKN040
   FM210000 27011KT P6SM BKN035
   FM211500 26007KT P6SM SCT035
KFWA 201733Z 2018/2118 26016G24KT P6SM BKN035
   FM202300 27010KT P6SM SCT040
   FM211200 23004KT P6SM SCT250
KCLE 201730Z 2018/2124 24018G28KT P6SM BKN040
   FM202300 25014G22KT 4SM -SHSN BKN030
   FM210200 26014KT 1 1/2SM -SHSN SCT008 OVC015
   FM211500 26010KT 3SM -SHSN SCT010 OVC020
   FM212200 23007KT P6SM SCT030
KFDY 201730Z 2018/2118 24016G26KT P6SM BKN035
   FM210000 26012KT P6SM SCT035
   FM211500 24006KT P6SM SCT035

METARs

KDUH 202215Z AUTO 26008KT 10SM BKN055 M03/M10 A3003 RMK AO2
KJXN 202156Z AUTO 28013G19KT 10SM SCT047 BKN060 M06/M12 A2999 RMK AO2 SLP172 T10561122
KFWA 202154Z 26017KT 10SM FEW048 M03/M11 A3007 RMK AO2 PK WND 27026/2101 SLP195 T10331111
KDTW 202153Z 25012G23KT 10SM FEW035 SCT060 M04/M12 A3000 RMK AO2 PK WND 25030/2101 SLP167 T10441117
KFDY 202153Z AUTO 24015G22KT 10SM FEW040 OVC050 M03/M09 A3005 RMK AO2 PK WND 25027/2112 SLP184 T10331094
KTDZ 202153Z AUTO 27016G23KT 10SM FEW042 SCT049 SCT060 M03/M12 A3004 RMK AO2 PK WND 26026/2059 SLP181 T10331117 TSNO
KTOL 202152Z 26014G20KT 10SM FEW041 M04/M12 A3003 RMK AO2 PK WND 26026/2055 SLP180 T10441117
KCLE 202151Z 26024G30KT 8SM -SN BKN037 OVC050 M04/M11 A3005 RMK AO2 PK WND 25030/2114 SLP187 P0000 T10391111 $

alt : Satellite

alt : TFRs